sensor_id;sensor_type;location;lat;lon;timestamp;P1;durP1;ratioP1;P2;durP2;ratioP2
14007;SDS011;61651;45.508;12.232;2023-10-13T00:01:35;56.97;;;46.47;;
14007;SDS011;61651;45.508;12.232;2023-10-13T00:04:37;59.72;;;47.13;;
14007;SDS011;61651;45.508;12.232;2023-10-13T00:07:41;57.38;;;45.00;;
14007;SDS011;61651;45.508;12.232;2023-10-13T00:10:43;58.92;;;44.67;;
14007;SDS011;61651;45.508;12.232;2023-10-13T00:13:45;60.40;;;48.35;;
14007;SDS011;61651;45.508;12.232;2023-10-13T00:16:50;52.75;;;43.45;;
14007;SDS011;61651;45.508;12.232;2023-10-13T00:20:07;59.55;;;47.00;;
14007;SDS011;61651;45.508;12.232;2023-10-13T00:23:17;62.10;;;49.38;;
14007;SDS011;61651;45.508;12.232;2023-10-13T00:26:22;61.08;;;47.58;;
14007;SDS011;61651;45.508;12.232;2023-10-13T00:29:27;71.90;;;54.00;;
14007;SDS011;61651;45.508;12.232;2023-10-13T00:32:37;72.40;;;52.17;;
14007;SDS011;61651;45.508;12.232;2023-10-13T00:35:43;71.45;;;54.03;;
14007;SDS011;61651;45.508;12.232;2023-10-13T00:38:46;78.63;;;57.80;;
14007;SDS011;61651;45.508;12.232;2023-10-13T00:41:49;74.90;;;56.90;;
14007;SDS011;61651;45.508;12.232;2023-10-13T00:44:52;78.85;;;54.92;;
14007;SDS011;61651;45.508;12.232;2023-10-13T00:47:54;81.53;;;57.72;;
14007;SDS011;61651;45.508;12.232;2023-10-13T00:50:57;77.55;;;56.08;;
14007;SDS011;61651;45.508;12.232;2023-10-13T00:54:04;76.38;;;57.65;;
14007;SDS011;61651;45.508;12.232;2023-10-13T00:57:11;77.47;;;57.50;;
14007;SDS011;61651;45.508;12.232;2023-10-13T01:00:26;85.82;;;59.95;;
14007;SDS011;61651;45.508;12.232;2023-10-13T01:03:28;76.38;;;56.75;;
14007;SDS011;61651;45.508;12.232;2023-10-13T01:06:31;72.15;;;54.40;;
14007;SDS011;61651;45.508;12.232;2023-10-13T01:09:41;73.68;;;57.45;;
14007;SDS011;61651;45.508;12.232;2023-10-13T01:12:43;83.28;;;59.03;;
14007;SDS011;61651;45.508;12.232;2023-10-13T01:15:45;80.60;;;58.55;;
14007;SDS011;61651;45.508;12.232;2023-10-13T01:18:47;81.70;;;57.92;;
14007;SDS011;61651;45.508;12.232;2023-10-13T01:21:50;80.30;;;55.92;;
14007;SDS011;61651;45.508;12.232;2023-10-13T01:24:58;78.82;;;58.60;;
14007;SDS011;61651;45.508;12.232;2023-10-13T01:28:07;78.53;;;56.88;;
14007;SDS011;61651;45.508;12.232;2023-10-13T01:31:09;75.00;;;55.05;;
14007;SDS011;61651;45.508;12.232;2023-10-13T01:34:12;70.80;;;55.10;;
14007;SDS011;61651;45.508;12.232;2023-10-13T01:37:20;73.07;;;54.13;;
14007;SDS011;61651;45.508;12.232;2023-10-13T01:40:24;62.78;;;51.75;;
14007;SDS011;61651;45.508;12.232;2023-10-13T01:43:29;69.63;;;52.22;;
14007;SDS011;61651;45.508;12.232;2023-10-13T01:46:30;70.65;;;54.05;;
14007;SDS011;61651;45.508;12.232;2023-10-13T01:49:32;71.20;;;53.20;;
14007;SDS011;61651;45.508;12.232;2023-10-13T01:52:42;66.05;;;52.38;;
14007;SDS011;61651;45.508;12.232;2023-10-13T01:55:44;63.55;;;49.92;;
14007;SDS011;61651;45.508;12.232;2023-10-13T01:58:46;60.90;;;47.88;;
14007;SDS011;61651;45.508;12.232;2023-10-13T02:01:48;65.25;;;50.63;;
14007;SDS011;61651;45.508;12.232;2023-10-13T02:04:51;66.40;;;51.80;;
14007;SDS011;61651;45.508;12.232;2023-10-13T02:07:56;65.72;;;50.08;;
14007;SDS011;61651;45.508;12.232;2023-10-13T02:11:03;68.53;;;49.58;;
14007;SDS011;61651;45.508;12.232;2023-10-13T02:14:07;65.57;;;50.55;;
14007;SDS011;61651;45.508;12.232;2023-10-13T02:17:11;69.72;;;50.33;;
14007;SDS011;61651;45.508;12.232;2023-10-13T02:20:12;64.05;;;48.92;;
14007;SDS011;61651;45.508;12.232;2023-10-13T02:23:15;62.17;;;48.85;;
14007;SDS011;61651;45.508;12.232;2023-10-13T02:26:19;66.45;;;50.15;;
14007;SDS011;61651;45.508;12.232;2023-10-13T02:29:30;68.55;;;49.35;;
14007;SDS011;61651;45.508;12.232;2023-10-13T02:32:39;61.10;;;46.03;;
14007;SDS011;61651;45.508;12.232;2023-10-13T02:35:43;57.30;;;46.00;;
14007;SDS011;61651;45.508;12.232;2023-10-13T02:38:53;60.90;;;47.80;;
14007;SDS011;61651;45.508;12.232;2023-10-13T02:41:59;61.40;;;46.92;;
14007;SDS011;61651;45.508;12.232;2023-10-13T02:45:01;57.95;;;46.85;;
14007;SDS011;61651;45.508;12.232;2023-10-13T02:48:04;62.20;;;46.60;;
14007;SDS011;61651;45.508;12.232;2023-10-13T02:51:13;61.53;;;47.05;;
14007;SDS011;61651;45.508;12.232;2023-10-13T02:54:15;62.47;;;49.70;;
14007;SDS011;61651;45.508;12.232;2023-10-13T02:57:20;63.08;;;47.95;;
14007;SDS011;61651;45.508;12.232;2023-10-13T03:00:23;63.95;;;47.92;;
14007;SDS011;61651;45.508;12.232;2023-10-13T03:03:31;59.42;;;46.38;;
14007;SDS011;61651;45.508;12.232;2023-10-13T03:06:34;61.38;;;47.92;;
14007;SDS011;61651;45.508;12.232;2023-10-13T03:09:40;63.30;;;49.63;;
14007;SDS011;61651;45.508;12.232;2023-10-13T03:12:51;63.35;;;48.72;;
14007;SDS011;61651;45.508;12.232;2023-10-13T03:15:53;67.65;;;51.90;;
14007;SDS011;61651;45.508;12.232;2023-10-13T03:18:55;61.60;;;47.55;;
14007;SDS011;61651;45.508;12.232;2023-10-13T03:21:57;58.45;;;46.25;;
14007;SDS011;61651;45.508;12.232;2023-10-13T03:25:06;57.10;;;45.15;;
14007;SDS011;61651;45.508;12.232;2023-10-13T03:28:15;63.00;;;48.85;;
14007;SDS011;61651;45.508;12.232;2023-10-13T03:31:21;61.78;;;47.53;;
14007;SDS011;61651;45.508;12.232;2023-10-13T03:34:28;59.00;;;47.13;;
14007;SDS011;61651;45.508;12.232;2023-10-13T03:37:30;66.05;;;48.58;;
14007;SDS011;61651;45.508;12.232;2023-10-13T03:40:39;58.90;;;45.90;;
14007;SDS011;61651;45.508;12.232;2023-10-13T03:43:42;62.17;;;48.63;;
14007;SDS011;61651;45.508;12.232;2023-10-13T03:46:51;61.25;;;47.95;;
14007;SDS011;61651;45.508;12.232;2023-10-13T03:49:54;65.47;;;48.92;;
14007;SDS011;61651;45.508;12.232;2023-10-13T03:53:15;58.58;;;46.63;;
14007;SDS011;61651;45.508;12.232;2023-10-13T03:56:18;59.50;;;46.50;;
14007;SDS011;61651;45.508;12.232;2023-10-13T03:59:29;66.03;;;49.28;;
14007;SDS011;61651;45.508;12.232;2023-10-13T04:02:36;61.05;;;47.65;;
14007;SDS011;61651;45.508;12.232;2023-10-13T04:05:38;67.25;;;50.53;;
14007;SDS011;61651;45.508;12.232;2023-10-13T04:08:41;67.13;;;49.88;;
14007;SDS011;61651;45.508;12.232;2023-10-13T04:11:48;66.28;;;50.45;;
14007;SDS011;61651;45.508;12.232;2023-10-13T04:15:15;64.35;;;48.42;;
14007;SDS011;61651;45.508;12.232;2023-10-13T04:18:23;71.75;;;54.05;;
14007;SDS011;61651;45.508;12.232;2023-10-13T04:21:34;70.65;;;52.58;;
14007;SDS011;61651;45.508;12.232;2023-10-13T04:24:55;68.13;;;53.70;;
14007;SDS011;61651;45.508;12.232;2023-10-13T04:28:22;71.00;;;52.50;;
14007;SDS011;61651;45.508;12.232;2023-10-13T04:31:39;63.28;;;48.53;;
14007;SDS011;61651;45.508;12.232;2023-10-13T04:34:58;73.22;;;53.90;;
14007;SDS011;61651;45.508;12.232;2023-10-13T04:38:08;67.15;;;53.20;;
14007;SDS011;61651;45.508;12.232;2023-10-13T04:41:19;70.07;;;54.30;;
14007;SDS011;61651;45.508;12.232;2023-10-13T04:44:23;74.05;;;52.60;;
14007;SDS011;61651;45.508;12.232;2023-10-13T04:47:45;75.47;;;55.38;;
14007;SDS011;61651;45.508;12.232;2023-10-13T04:51:00;75.13;;;55.70;;
14007;SDS011;61651;45.508;12.232;2023-10-13T04:54:16;71.07;;;53.60;;
14007;SDS011;61651;45.508;12.232;2023-10-13T04:57:33;66.32;;;52.83;;
14007;SDS011;61651;45.508;12.232;2023-10-13T05:00:35;75.53;;;54.33;;
14007;SDS011;61651;45.508;12.232;2023-10-13T05:03:55;79.38;;;55.33;;
14007;SDS011;61651;45.508;12.232;2023-10-13T05:07:21;69.88;;;53.95;;
14007;SDS011;61651;45.508;12.232;2023-10-13T05:10:40;74.88;;;52.75;;
14007;SDS011;61651;45.508;12.232;2023-10-13T05:13:59;70.75;;;53.05;;
14007;SDS011;61651;45.508;12.232;2023-10-13T05:17:19;68.47;;;54.17;;
14007;SDS011;61651;45.508;12.232;2023-10-13T05:20:39;66.65;;;52.78;;
14007;SDS011;61651;45.508;12.232;2023-10-13T05:23:59;73.28;;;55.30;;
14007;SDS011;61651;45.508;12.232;2023-10-13T05:27:18;79.45;;;57.38;;
14007;SDS011;61651;45.508;12.232;2023-10-13T05:30:37;77.57;;;59.00;;
14007;SDS011;61651;45.508;12.232;2023-10-13T05:33:57;74.10;;;56.22;;
14007;SDS011;61651;45.508;12.232;2023-10-13T05:37:18;81.20;;;59.88;;
14007;SDS011;61651;45.508;12.232;2023-10-13T05:40:37;84.88;;;59.47;;
14007;SDS011;61651;45.508;12.232;2023-10-13T05:43:57;80.75;;;59.63;;
14007;SDS011;61651;45.508;12.232;2023-10-13T05:47:16;69.38;;;54.65;;
14007;SDS011;61651;45.508;12.232;2023-10-13T05:50:46;78.63;;;56.88;;
14007;SDS011;61651;45.508;12.232;2023-10-13T05:54:12;80.40;;;58.42;;
14007;SDS011;61651;45.508;12.232;2023-10-13T05:57:32;77.38;;;56.38;;
14007;SDS011;61651;45.508;12.232;2023-10-13T06:00:52;74.47;;;55.95;;
14007;SDS011;61651;45.508;12.232;2023-10-13T06:04:12;79.35;;;57.45;;
14007;SDS011;61651;45.508;12.232;2023-10-13T06:07:34;78.72;;;55.83;;
14007;SDS011;61651;45.508;12.232;2023-10-13T06:11:01;76.32;;;55.63;;
14007;SDS011;61651;45.508;12.232;2023-10-13T06:14:21;75.68;;;53.85;;
14007;SDS011;61651;45.508;12.232;2023-10-13T06:17:41;79.60;;;58.15;;
14007;SDS011;61651;45.508;12.232;2023-10-13T06:21:00;92.03;;;61.97;;
14007;SDS011;61651;45.508;12.232;2023-10-13T06:24:20;74.95;;;56.38;;
14007;SDS011;61651;45.508;12.232;2023-10-13T06:27:41;75.70;;;57.08;;
14007;SDS011;61651;45.508;12.232;2023-10-13T06:31:01;81.45;;;58.13;;
14007;SDS011;61651;45.508;12.232;2023-10-13T06:34:06;82.82;;;60.78;;
14007;SDS011;61651;45.508;12.232;2023-10-13T06:37:08;75.18;;;56.33;;
14007;SDS011;61651;45.508;12.232;2023-10-13T06:40:22;78.07;;;57.22;;
14007;SDS011;61651;45.508;12.232;2023-10-13T06:43:34;77.55;;;58.13;;
14007;SDS011;61651;45.508;12.232;2023-10-13T06:46:40;71.90;;;56.60;;
14007;SDS011;61651;45.508;12.232;2023-10-13T06:49:42;81.90;;;60.17;;
14007;SDS011;61651;45.508;12.232;2023-10-13T06:52:44;81.35;;;58.80;;
14007;SDS011;61651;45.508;12.232;2023-10-13T06:55:47;75.10;;;59.50;;
14007;SDS011;61651;45.508;12.232;2023-10-13T06:58:54;74.32;;;55.80;;
14007;SDS011;61651;45.508;12.232;2023-10-13T07:01:59;76.45;;;57.10;;
14007;SDS011;61651;45.508;12.232;2023-10-13T07:05:05;68.63;;;54.00;;
14007;SDS011;61651;45.508;12.232;2023-10-13T07:08:11;73.28;;;56.15;;
14007;SDS011;61651;45.508;12.232;2023-10-13T07:11:14;77.60;;;57.20;;
14007;SDS011;61651;45.508;12.232;2023-10-13T07:14:20;73.88;;;54.95;;
14007;SDS011;61651;45.508;12.232;2023-10-13T07:17:23;78.65;;;54.38;;
14007;SDS011;61651;45.508;12.232;2023-10-13T07:20:25;75.97;;;56.58;;
14007;SDS011;61651;45.508;12.232;2023-10-13T07:23:34;68.43;;;55.50;;
14007;SDS011;61651;45.508;12.232;2023-10-13T07:26:37;68.32;;;53.10;;
14007;SDS011;61651;45.508;12.232;2023-10-13T07:29:44;59.70;;;49.40;;
14007;SDS011;61651;45.508;12.232;2023-10-13T07:32:46;61.10;;;49.83;;
14007;SDS011;61651;45.508;12.232;2023-10-13T07:35:58;63.05;;;51.35;;
14007;SDS011;61651;45.508;12.232;2023-10-13T07:39:11;71.03;;;50.42;;
14007;SDS011;61651;45.508;12.232;2023-10-13T07:42:21;69.35;;;51.03;;
14007;SDS011;61651;45.508;12.232;2023-10-13T07:45:25;60.55;;;49.45;;
14007;SDS011;61651;45.508;12.232;2023-10-13T07:48:36;63.25;;;50.92;;
14007;SDS011;61651;45.508;12.232;2023-10-13T07:51:39;63.40;;;50.50;;
14007;SDS011;61651;45.508;12.232;2023-10-13T07:54:44;63.00;;;50.25;;
14007;SDS011;61651;45.508;12.232;2023-10-13T07:57:56;61.75;;;51.25;;
14007;SDS011;61651;45.508;12.232;2023-10-13T08:01:00;62.67;;;50.28;;
14007;SDS011;61651;45.508;12.232;2023-10-13T08:04:09;69.15;;;50.00;;
14007;SDS011;61651;45.508;12.232;2023-10-13T08:07:12;60.30;;;48.33;;
14007;SDS011;61651;45.508;12.232;2023-10-13T08:10:14;61.35;;;49.00;;
14007;SDS011;61651;45.508;12.232;2023-10-13T08:13:17;57.92;;;48.40;;
14007;SDS011;61651;45.508;12.232;2023-10-13T08:16:22;63.33;;;48.90;;
14007;SDS011;61651;45.508;12.232;2023-10-13T08:19:30;60.95;;;47.60;;
14007;SDS011;61651;45.508;12.232;2023-10-13T08:22:40;66.20;;;49.95;;
14007;SDS011;61651;45.508;12.232;2023-10-13T08:25:47;70.78;;;51.67;;
14007;SDS011;61651;45.508;12.232;2023-10-13T08:29:06;68.07;;;51.72;;
14007;SDS011;61651;45.508;12.232;2023-10-13T08:32:24;70.35;;;53.05;;
14007;SDS011;61651;45.508;12.232;2023-10-13T08:35:45;61.85;;;48.00;;
14007;SDS011;61651;45.508;12.232;2023-10-13T08:39:05;71.57;;;54.15;;
14007;SDS011;61651;45.508;12.232;2023-10-13T08:42:37;74.22;;;54.83;;
14007;SDS011;61651;45.508;12.232;2023-10-13T08:45:53;71.75;;;54.65;;
14007;SDS011;61651;45.508;12.232;2023-10-13T08:49:08;74.60;;;58.13;;
14007;SDS011;61651;45.508;12.232;2023-10-13T08:52:17;72.78;;;56.08;;
14007;SDS011;61651;45.508;12.232;2023-10-13T08:55:49;68.47;;;52.47;;
14007;SDS011;61651;45.508;12.232;2023-10-13T08:59:02;75.05;;;53.72;;
14007;SDS011;61651;45.508;12.232;2023-10-13T09:02:13;64.53;;;51.40;;
14007;SDS011;61651;45.508;12.232;2023-10-13T09:05:17;65.53;;;53.83;;
14007;SDS011;61651;45.508;12.232;2023-10-13T09:08:34;69.75;;;51.50;;
14007;SDS011;61651;45.508;12.232;2023-10-13T09:12:10;68.82;;;52.83;;
14007;SDS011;61651;45.508;12.232;2023-10-13T09:15:11;63.55;;;51.13;;
14007;SDS011;61651;45.508;12.232;2023-10-13T09:18:24;67.45;;;50.97;;
14007;SDS011;61651;45.508;12.232;2023-10-13T09:21:47;70.03;;;54.95;;
14007;SDS011;61651;45.508;12.232;2023-10-13T09:24:55;70.90;;;52.80;;
14007;SDS011;61651;45.508;12.232;2023-10-13T09:27:58;73.38;;;58.92;;
14007;SDS011;61651;45.508;12.232;2023-10-13T09:31:02;67.72;;;53.28;;
14007;SDS011;61651;45.508;12.232;2023-10-13T09:34:09;67.78;;;54.45;;
14007;SDS011;61651;45.508;12.232;2023-10-13T09:37:13;66.90;;;53.47;;
14007;SDS011;61651;45.508;12.232;2023-10-13T09:40:21;74.35;;;54.05;;
14007;SDS011;61651;45.508;12.232;2023-10-13T09:43:34;69.75;;;51.95;;
14007;SDS011;61651;45.508;12.232;2023-10-13T09:46:37;65.43;;;50.72;;
14007;SDS011;61651;45.508;12.232;2023-10-13T09:49:43;62.30;;;51.72;;
14007;SDS011;61651;45.508;12.232;2023-10-13T09:52:52;65.22;;;52.78;;
14007;SDS011;61651;45.508;12.232;2023-10-13T09:56:00;68.25;;;57.60;;
14007;SDS011;61651;45.508;12.232;2023-10-13T09:59:14;58.63;;;48.80;;
14007;SDS011;61651;45.508;12.232;2023-10-13T10:02:20;64.47;;;53.97;;
14007;SDS011;61651;45.508;12.232;2023-10-13T10:05:25;67.57;;;53.85;;
14007;SDS011;61651;45.508;12.232;2023-10-13T10:08:29;64.10;;;51.97;;
14007;SDS011;61651;45.508;12.232;2023-10-13T10:11:52;66.22;;;52.08;;
14007;SDS011;61651;45.508;12.232;2023-10-13T10:15:20;71.10;;;53.38;;
14007;SDS011;61651;45.508;12.232;2023-10-13T10:18:34;58.03;;;47.72;;
14007;SDS011;61651;45.508;12.232;2023-10-13T10:21:36;57.83;;;49.40;;
14007;SDS011;61651;45.508;12.232;2023-10-13T10:24:39;70.70;;;51.10;;
14007;SDS011;61651;45.508;12.232;2023-10-13T10:27:42;57.35;;;47.78;;
14007;SDS011;61651;45.508;12.232;2023-10-13T10:30:44;63.88;;;48.80;;
14007;SDS011;61651;45.508;12.232;2023-10-13T10:33:46;61.20;;;45.38;;
14007;SDS011;61651;45.508;12.232;2023-10-13T10:36:53;60.13;;;44.75;;
14007;SDS011;61651;45.508;12.232;2023-10-13T10:39:57;53.75;;;41.60;;
14007;SDS011;61651;45.508;12.232;2023-10-13T10:43:01;54.80;;;46.45;;
14007;SDS011;61651;45.508;12.232;2023-10-13T10:46:08;49.17;;;43.50;;
14007;SDS011;61651;45.508;12.232;2023-10-13T10:49:11;59.95;;;46.53;;
14007;SDS011;61651;45.508;12.232;2023-10-13T10:52:16;56.60;;;46.08;;
14007;SDS011;61651;45.508;12.232;2023-10-13T10:55:22;56.22;;;45.10;;
14007;SDS011;61651;45.508;12.232;2023-10-13T10:58:32;60.95;;;44.10;;
14007;SDS011;61651;45.508;12.232;2023-10-13T11:01:44;59.33;;;47.03;;
14007;SDS011;61651;45.508;12.232;2023-10-13T11:04:50;60.78;;;47.67;;
14007;SDS011;61651;45.508;12.232;2023-10-13T11:07:53;60.45;;;50.35;;
14007;SDS011;61651;45.508;12.232;2023-10-13T11:10:57;58.25;;;45.85;;
14007;SDS011;61651;45.508;12.232;2023-10-13T11:14:01;64.03;;;46.38;;
14007;SDS011;61651;45.508;12.232;2023-10-13T11:17:21;54.38;;;48.20;;
14007;SDS011;61651;45.508;12.232;2023-10-13T11:20:27;56.88;;;45.60;;
14007;SDS011;61651;45.508;12.232;2023-10-13T11:23:33;61.35;;;46.17;;
14007;SDS011;61651;45.508;12.232;2023-10-13T11:26:38;58.15;;;45.63;;
14007;SDS011;61651;45.508;12.232;2023-10-13T11:29:49;56.70;;;46.03;;
14007;SDS011;61651;45.508;12.232;2023-10-13T11:32:56;64.50;;;45.05;;
14007;SDS011;61651;45.508;12.232;2023-10-13T11:35:59;55.08;;;45.25;;
14007;SDS011;61651;45.508;12.232;2023-10-13T11:39:03;54.42;;;42.10;;
14007;SDS011;61651;45.508;12.232;2023-10-13T11:42:09;51.90;;;42.30;;
14007;SDS011;61651;45.508;12.232;2023-10-13T11:45:12;56.25;;;43.45;;
14007;SDS011;61651;45.508;12.232;2023-10-13T11:48:29;56.75;;;46.38;;
14007;SDS011;61651;45.508;12.232;2023-10-13T11:51:36;50.92;;;42.15;;
14007;SDS011;61651;45.508;12.232;2023-10-13T11:54:38;48.28;;;40.67;;
14007;SDS011;61651;45.508;12.232;2023-10-13T11:57:43;56.58;;;45.20;;
14007;SDS011;61651;45.508;12.232;2023-10-13T12:00:45;55.03;;;45.20;;
14007;SDS011;61651;45.508;12.232;2023-10-13T12:03:54;55.45;;;44.75;;
14007;SDS011;61651;45.508;12.232;2023-10-13T12:07:14;55.75;;;45.67;;
14007;SDS011;61651;45.508;12.232;2023-10-13T12:10:19;51.92;;;41.80;;
14007;SDS011;61651;45.508;12.232;2023-10-13T12:13:50;49.63;;;41.97;;
14007;SDS011;61651;45.508;12.232;2023-10-13T12:16:52;54.08;;;40.58;;
14007;SDS011;61651;45.508;12.232;2023-10-13T12:19:55;48.35;;;42.60;;
14007;SDS011;61651;45.508;12.232;2023-10-13T12:22:58;52.22;;;40.92;;
14007;SDS011;61651;45.508;12.232;2023-10-13T12:26:09;53.75;;;42.45;;
14007;SDS011;61651;45.508;12.232;2023-10-13T12:29:20;52.67;;;40.08;;
14007;SDS011;61651;45.508;12.232;2023-10-13T12:32:28;44.53;;;38.80;;
14007;SDS011;61651;45.508;12.232;2023-10-13T12:35:31;49.35;;;39.28;;
14007;SDS011;61651;45.508;12.232;2023-10-13T12:38:45;51.70;;;43.87;;
14007;SDS011;61651;45.508;12.232;2023-10-13T12:42:06;42.30;;;35.35;;
14007;SDS011;61651;45.508;12.232;2023-10-13T12:45:39;52.15;;;41.75;;
14007;SDS011;61651;45.508;12.232;2023-10-13T12:48:59;44.30;;;37.72;;
14007;SDS011;61651;45.508;12.232;2023-10-13T12:52:16;39.50;;;34.13;;
14007;SDS011;61651;45.508;12.232;2023-10-13T12:55:19;44.78;;;37.25;;
14007;SDS011;61651;45.508;12.232;2023-10-13T12:58:25;42.15;;;34.28;;
14007;SDS011;61651;45.508;12.232;2023-10-13T13:01:29;58.28;;;34.90;;
14007;SDS011;61651;45.508;12.232;2023-10-13T13:04:34;43.38;;;35.50;;
14007;SDS011;61651;45.508;12.232;2023-10-13T13:07:37;43.85;;;35.13;;
14007;SDS011;61651;45.508;12.232;2023-10-13T13:10:47;40.70;;;32.22;;
14007;SDS011;61651;45.508;12.232;2023-10-13T13:13:49;43.90;;;36.67;;
14007;SDS011;61651;45.508;12.232;2023-10-13T13:16:52;43.70;;;35.88;;
14007;SDS011;61651;45.508;12.232;2023-10-13T13:19:54;51.35;;;43.03;;
14007;SDS011;61651;45.508;12.232;2023-10-13T13:22:56;44.65;;;34.25;;
14007;SDS011;61651;45.508;12.232;2023-10-13T13:26:02;46.50;;;35.55;;
14007;SDS011;61651;45.508;12.232;2023-10-13T13:29:15;43.53;;;35.30;;
14007;SDS011;61651;45.508;12.232;2023-10-13T13:32:18;45.22;;;36.67;;
14007;SDS011;61651;45.508;12.232;2023-10-13T13:35:24;44.97;;;35.80;;
14007;SDS011;61651;45.508;12.232;2023-10-13T13:38:33;38.33;;;32.75;;
14007;SDS011;61651;45.508;12.232;2023-10-13T13:41:35;42.72;;;34.97;;
14007;SDS011;61651;45.508;12.232;2023-10-13T13:44:38;42.55;;;35.55;;
14007;SDS011;61651;45.508;12.232;2023-10-13T13:47:44;44.40;;;35.25;;
14007;SDS011;61651;45.508;12.232;2023-10-13T13:50:46;39.20;;;33.97;;
14007;SDS011;61651;45.508;12.232;2023-10-13T13:53:52;38.35;;;32.03;;
14007;SDS011;61651;45.508;12.232;2023-10-13T13:56:54;43.97;;;34.97;;
14007;SDS011;61651;45.508;12.232;2023-10-13T13:59:57;49.35;;;36.60;;
14007;SDS011;61651;45.508;12.232;2023-10-13T14:03:01;51.67;;;38.55;;
14007;SDS011;61651;45.508;12.232;2023-10-13T14:06:03;42.90;;;38.22;;
14007;SDS011;61651;45.508;12.232;2023-10-13T14:09:06;43.15;;;37.55;;
14007;SDS011;61651;45.508;12.232;2023-10-13T14:12:15;48.40;;;38.80;;
14007;SDS011;61651;45.508;12.232;2023-10-13T14:15:29;51.90;;;38.30;;
14007;SDS011;61651;45.508;12.232;2023-10-13T14:18:40;45.05;;;37.92;;
14007;SDS011;61651;45.508;12.232;2023-10-13T14:21:42;47.72;;;37.75;;
14007;SDS011;61651;45.508;12.232;2023-10-13T14:24:44;50.50;;;41.00;;
14007;SDS011;61651;45.508;12.232;2023-10-13T14:27:51;43.75;;;35.20;;
14007;SDS011;61651;45.508;12.232;2023-10-13T14:30:53;40.67;;;34.17;;
14007;SDS011;61651;45.508;12.232;2023-10-13T14:33:56;43.58;;;35.88;;
14007;SDS011;61651;45.508;12.232;2023-10-13T14:36:58;42.42;;;37.63;;
14007;SDS011;61651;45.508;12.232;2023-10-13T14:40:00;43.28;;;33.65;;
14007;SDS011;61651;45.508;12.232;2023-10-13T14:43:03;42.70;;;35.75;;
14007;SDS011;61651;45.508;12.232;2023-10-13T14:46:07;39.67;;;32.05;;
14007;SDS011;61651;45.508;12.232;2023-10-13T14:49:11;41.08;;;32.85;;
14007;SDS011;61651;45.508;12.232;2023-10-13T14:52:18;33.97;;;30.38;;
14007;SDS011;61651;45.508;12.232;2023-10-13T14:55:20;40.65;;;33.90;;
14007;SDS011;61651;45.508;12.232;2023-10-13T14:58:38;36.38;;;32.38;;
14007;SDS011;61651;45.508;12.232;2023-10-13T15:01:42;38.55;;;31.98;;
14007;SDS011;61651;45.508;12.232;2023-10-13T15:04:48;38.13;;;31.00;;
14007;SDS011;61651;45.508;12.232;2023-10-13T15:07:50;36.58;;;30.38;;
14007;SDS011;61651;45.508;12.232;2023-10-13T15:10:52;38.70;;;30.92;;
14007;SDS011;61651;45.508;12.232;2023-10-13T15:13:54;34.70;;;30.23;;
14007;SDS011;61651;45.508;12.232;2023-10-13T15:16:56;39.75;;;32.33;;
14007;SDS011;61651;45.508;12.232;2023-10-13T15:20:02;35.65;;;30.67;;
14007;SDS011;61651;45.508;12.232;2023-10-13T15:23:06;40.90;;;32.38;;
14007;SDS011;61651;45.508;12.232;2023-10-13T15:26:08;34.38;;;30.17;;
14007;SDS011;61651;45.508;12.232;2023-10-13T15:29:12;37.15;;;32.00;;
14007;SDS011;61651;45.508;12.232;2023-10-13T15:32:16;35.58;;;31.15;;
14007;SDS011;61651;45.508;12.232;2023-10-13T15:35:39;36.88;;;30.75;;
14007;SDS011;61651;45.508;12.232;2023-10-13T15:38:42;38.92;;;31.77;;
14007;SDS011;61651;45.508;12.232;2023-10-13T15:41:45;35.42;;;31.42;;
14007;SDS011;61651;45.508;12.232;2023-10-13T15:44:47;35.28;;;31.52;;
14007;SDS011;61651;45.508;12.232;2023-10-13T15:47:50;39.53;;;31.77;;
14007;SDS011;61651;45.508;12.232;2023-10-13T15:50:53;40.08;;;30.40;;
14007;SDS011;61651;45.508;12.232;2023-10-13T15:53:55;42.83;;;33.85;;
14007;SDS011;61651;45.508;12.232;2023-10-13T15:57:00;37.97;;;31.63;;
14007;SDS011;61651;45.508;12.232;2023-10-13T16:00:02;38.65;;;31.48;;
14007;SDS011;61651;45.508;12.232;2023-10-13T16:03:24;33.97;;;30.05;;
14007;SDS011;61651;45.508;12.232;2023-10-13T16:06:28;37.72;;;31.48;;
14007;SDS011;61651;45.508;12.232;2023-10-13T16:09:31;41.33;;;33.72;;
14007;SDS011;61651;45.508;12.232;2023-10-13T16:12:34;41.83;;;32.15;;
14007;SDS011;61651;45.508;12.232;2023-10-13T16:15:36;47.85;;;32.83;;
14007;SDS011;61651;45.508;12.232;2023-10-13T16:18:42;42.28;;;32.50;;
14007;SDS011;61651;45.508;12.232;2023-10-13T16:21:46;37.35;;;32.10;;
14007;SDS011;61651;45.508;12.232;2023-10-13T16:24:48;41.28;;;33.95;;
14007;SDS011;61651;45.508;12.232;2023-10-13T16:27:51;38.03;;;31.92;;
14007;SDS011;61651;45.508;12.232;2023-10-13T16:30:53;40.80;;;33.30;;
14007;SDS011;61651;45.508;12.232;2023-10-13T16:33:56;38.65;;;32.15;;
14007;SDS011;61651;45.508;12.232;2023-10-13T16:37:00;35.10;;;30.95;;
14007;SDS011;61651;45.508;12.232;2023-10-13T16:40:05;39.55;;;29.38;;
14007;SDS011;61651;45.508;12.232;2023-10-13T16:43:08;37.25;;;29.52;;
14007;SDS011;61651;45.508;12.232;2023-10-13T16:46:12;41.72;;;30.15;;
14007;SDS011;61651;45.508;12.232;2023-10-13T16:49:15;35.50;;;28.25;;
14007;SDS011;61651;45.508;12.232;2023-10-13T16:52:18;32.65;;;28.90;;
14007;SDS011;61651;45.508;12.232;2023-10-13T16:55:20;32.28;;;28.10;;
14007;SDS011;61651;45.508;12.232;2023-10-13T16:58:24;35.20;;;29.00;;
14007;SDS011;61651;45.508;12.232;2023-10-13T17:01:27;35.53;;;27.17;;
14007;SDS011;61651;45.508;12.232;2023-10-13T17:04:29;30.77;;;27.40;;
14007;SDS011;61651;45.508;12.232;2023-10-13T17:07:32;31.65;;;26.95;;
14007;SDS011;61651;45.508;12.232;2023-10-13T17:10:36;36.13;;;26.40;;
14007;SDS011;61651;45.508;12.232;2023-10-13T17:13:39;31.83;;;26.23;;
14007;SDS011;61651;45.508;12.232;2023-10-13T17:16:42;29.73;;;25.20;;
14007;SDS011;61651;45.508;12.232;2023-10-13T17:19:44;33.70;;;25.38;;
14007;SDS011;61651;45.508;12.232;2023-10-13T17:22:51;26.67;;;24.00;;
14007;SDS011;61651;45.508;12.232;2023-10-13T17:25:56;28.50;;;25.33;;
14007;SDS011;61651;45.508;12.232;2023-10-13T17:28:58;33.15;;;25.70;;
14007;SDS011;61651;45.508;12.232;2023-10-13T17:32:02;27.38;;;23.38;;
14007;SDS011;61651;45.508;12.232;2023-10-13T17:35:08;29.27;;;25.00;;
14007;SDS011;61651;45.508;12.232;2023-10-13T17:38:13;27.63;;;23.48;;
14007;SDS011;61651;45.508;12.232;2023-10-13T17:41:15;26.38;;;23.58;;
14007;SDS011;61651;45.508;12.232;2023-10-13T17:44:17;27.10;;;23.83;;
14007;SDS011;61651;45.508;12.232;2023-10-13T17:47:21;32.17;;;24.25;;
14007;SDS011;61651;45.508;12.232;2023-10-13T17:50:26;29.35;;;24.80;;
14007;SDS011;61651;45.508;12.232;2023-10-13T17:53:29;28.02;;;24.88;;
14007;SDS011;61651;45.508;12.232;2023-10-13T17:56:34;32.40;;;25.70;;
14007;SDS011;61651;45.508;12.232;2023-10-13T17:59:37;33.05;;;26.05;;
14007;SDS011;61651;45.508;12.232;2023-10-13T18:02:39;30.92;;;26.25;;